Juniper Hills, California
Current Conditions -  °F | °C
As of 10:53 AM on Tuesday 21 Oct 2014 (Local Time) from KPMD Reporting Station
Clear Clear  
Wind Chill: 67°   Ceiling: Unl
Heat Index: 67°   Visibility: 10mi
Dew Point: 41°   Wind: 16mph
Humidity: 39%   Direction: 300°WNW
Pressure: 29.99"   Gusts: NA
Location:  34.4844°N, 117.91°W
Report Text: KPMD 211753Z 30014KT 10SM CLR 19/05 A2999 RMK AO2 SLP136 T01940050 10194 20106 58003
Loading
Personal Weather Stations






























Interactive Weather Map
Tropical Storm Tracking
New forecast layout! Learn more

10-Day Weather Forecast

Advertisements
Track Severe Weather on mobile